Time;durP1;ratioP1;P1;durP2;ratioP2;P2;SDS_P1;SDS_P2;PMS_P1;PMS_P2;Temp;Humidity;BMP_temperature;BMP_pressure;BME280_temperature;BME280_humidity;BME280_pressure;Samples;Min_cycle;Max_cycle;Signal;HPM_P1;HPM_P2
2023/01/19 00:01:24;;;;;;;27.77;14.85;;;;;;;2.42;70.76;99549.84;5071879;28;20025;-54
2023/01/19 00:03:50;;;;;;;31.08;16.05;;;;;;;2.41;71.22;99556.06;5071471;28;20059;-57
2023/01/19 00:06:16;;;;;;;28.65;15.15;;;;;;;2.37;71.23;99536.00;5071838;28;20106;-57
2023/01/19 00:08:44;;;;;;;27.98;13.80;;;;;;;2.28;71.28;99534.69;5072058;28;20021;-55
2023/01/19 00:11:11;;;;;;;28.50;14.13;;;;;;;2.41;71.02;99542.00;5071446;28;20060;-53
2023/01/19 00:13:37;;;;;;;32.28;14.13;;;;;;;2.27;71.87;99561.19;5072262;28;20042;-53
2023/01/19 00:16:03;;;;;;;29.90;15.02;;;;;;;2.39;71.14;99534.13;5072076;28;20380;-55
2023/01/19 00:18:29;;;;;;;29.55;15.63;;;;;;;2.20;72.34;99536.88;5071857;28;20039;-55
2023/01/19 00:20:54;;;;;;;28.77;14.38;;;;;;;2.20;72.71;99530.75;5071844;28;20491;-57
2023/01/19 00:23:20;;;;;;;32.50;14.85;;;;;;;2.29;72.09;99528.50;5072005;28;20024;-54
2023/01/19 00:25:47;;;;;;;28.83;14.95;;;;;;;2.07;72.63;99523.44;5071234;28;20055;-56
2023/01/19 00:28:15;;;;;;;30.42;15.48;;;;;;;2.34;72.52;99530.03;5071971;28;20040;-58
2023/01/19 00:30:41;;;;;;;26.42;13.57;;;;;;;2.30;73.09;99524.06;5071350;28;20037;-56
2023/01/19 00:33:07;;;;;;;26.25;15.15;;;;;;;2.34;72.95;99540.59;5070446;28;20405;-55
2023/01/19 00:35:34;;;;;;;26.17;14.52;;;;;;;2.30;72.93;99537.25;5072077;28;20057;-54
2023/01/19 00:38:00;;;;;;;26.50;12.88;;;;;;;2.39;72.32;99528.00;5071726;28;20123;-57
2023/01/19 00:40:25;;;;;;;28.05;13.63;;;;;;;2.41;72.38;99542.88;5071162;28;20021;-54
2023/01/19 00:42:51;;;;;;;20.80;11.05;;;;;;;2.46;71.62;99554.97;5072065;28;20043;-56
2023/01/19 00:45:19;;;;;;;22.02;12.50;;;;;;;2.41;72.31;99536.72;5071414;28;20032;-58
2023/01/19 00:47:45;;;;;;;25.23;13.60;;;;;;;2.38;72.54;99535.06;5071162;28;20429;-57
2023/01/19 00:50:12;;;;;;;26.85;13.75;;;;;;;2.28;72.84;99544.41;5070808;28;20137;-56
2023/01/19 00:52:38;;;;;;;24.17;13.00;;;;;;;2.43;72.27;99530.41;5072384;28;20021;-53
2023/01/19 00:55:05;;;;;;;22.90;13.52;;;;;;;2.53;71.73;99533.44;5071312;28;20028;-50
2023/01/19 00:57:31;;;;;;;24.55;13.35;;;;;;;2.47;71.98;99535.53;5071433;28;20099;-57
2023/01/19 00:59:56;;;;;;;25.73;14.05;;;;;;;2.53;71.54;99516.72;5072013;28;20144;-55
2023/01/19 01:02:22;;;;;;;23.88;13.82;;;;;;;2.37;72.50;99574.78;5071182;28;20029;-53
2023/01/19 01:04:47;;;;;;;24.88;13.15;;;;;;;2.49;72.29;99517.81;5071275;28;20028;-57
2023/01/19 01:07:13;;;;;;;28.58;14.50;;;;;;;2.46;72.45;99520.63;5071707;28;20025;-58
2023/01/19 01:09:38;;;;;;;28.75;14.20;;;;;;;2.22;72.65;99483.97;5072066;28;20062;-56
2023/01/19 01:12:04;;;;;;;27.60;13.93;;;;;;;2.49;72.32;99525.75;5071339;28;20048;-56
2023/01/19 01:14:29;;;;;;;27.58;15.20;;;;;;;2.50;71.66;99543.31;5071583;28;20389;-52
2023/01/19 01:16:55;;;;;;;25.23;13.45;;;;;;;2.47;72.09;99532.91;5074775;28;20029;-56
2023/01/19 01:19:20;;;;;;;26.83;14.80;;;;;;;2.41;72.71;99494.44;5074939;28;20441;-56
2023/01/19 01:21:46;;;;;;;26.30;14.02;;;;;;;2.47;71.97;99514.41;5074837;28;20078;-55
2023/01/19 01:24:11;;;;;;;27.60;14.35;;;;;;;2.23;71.47;99475.13;5074961;28;20024;-65
2023/01/19 01:26:37;;;;;;;25.98;13.80;;;;;;;2.41;72.39;99516.44;5074016;28;20044;-55
2023/01/19 01:29:05;;;;;;;28.40;14.73;;;;;;;2.43;72.13;99519.84;5075203;28;20074;-56
2023/01/19 01:31:30;;;;;;;21.40;10.50;;;;;;;2.51;71.47;99515.94;5074794;28;20040;-56
2023/01/19 01:33:56;;;;;;;29.60;15.00;;;;;;;2.45;71.46;99527.69;5074504;28;20360;-55
2023/01/19 01:36:22;;;;;;;28.30;15.80;;;;;;;2.38;72.15;99535.06;5074153;28;20117;-55
2023/01/19 01:38:47;;;;;;;27.20;15.40;;;;;;;2.35;72.71;99535.22;5075120;28;20123;-58
2023/01/19 01:41:13;;;;;;;31.20;15.60;;;;;;;2.38;72.50;99536.88;5074990;28;20043;-64
2023/01/19 01:43:47;;;;;;;23.85;14.10;;;;;;;2.49;71.40;99529.22;5074579;28;20028;-57
2023/01/19 01:46:14;;;;;;;26.27;15.05;;;;;;;2.34;72.74;99527.41;5074653;28;20040;-60
2023/01/19 01:48:42;;;;;;;27.33;14.65;;;;;;;2.31;72.76;99531.03;5075026;28;20043;-53
2023/01/19 01:51:24;;;;;;;25.52;14.85;;;;;;;2.36;72.63;99539.56;5074818;28;20032;-55
2023/01/19 01:53:55;;;;;;;25.13;14.75;;;;;;;2.37;72.88;99528.06;5054441;28;20060;-53
2023/01/19 01:56:25;;;;;;;25.10;14.45;;;;;;;2.17;72.60;99500.06;5054286;28;20483;-54
2023/01/19 01:58:51;;;;;;;26.38;13.70;;;;;;;2.49;71.48;99534.50;5064759;28;20397;-52
2023/01/19 02:04:00;;;;;;;33.30;14.80;;;;;;;2.44;71.70;99545.34;5073947;28;20029;-51
2023/01/19 02:06:26;;;;;;;30.00;14.85;;;;;;;2.48;71.70;99537.25;5073796;28;20132;-50
2023/01/19 02:14:36;;;;;;;29.80;14.55;;;;;;;2.22;72.31;99491.91;5072660;28;20107;-55
2023/01/19 02:17:02;;;;;;;30.77;14.68;;;;;;;2.31;72.75;99511.72;5073820;28;20115;-56
2023/01/19 02:19:47;;;;;;;24.88;14.00;;;;;;;2.40;72.53;99519.16;5073025;28;20043;-55
2023/01/19 02:22:27;;;;;;;26.77;13.05;;;;;;;2.36;73.17;99513.16;5073927;28;20032;-56
2023/01/19 02:24:53;;;;;;;24.10;13.23;;;;;;;2.27;72.59;99497.78;5073610;28;20024;-56
2023/01/19 02:27:19;;;;;;;27.23;14.48;;;;;;;2.26;73.82;99519.84;5072847;28;20483;-57
2023/01/19 02:29:45;;;;;;;24.65;13.82;;;;;;;2.29;73.28;99523.22;5073569;28;20334;-55
2023/01/19 02:32:10;;;;;;;29.55;15.77;;;;;;;2.28;73.69;99524.13;5073925;28;20045;-54
2023/01/19 02:34:36;;;;;;;26.70;14.93;;;;;;;2.31;73.59;99515.19;5072991;28;20368;-56
2023/01/19 02:37:08;;;;;;;28.50;15.90;;;;;;;2.27;73.97;99518.94;5073539;28;20090;-56
2023/01/19 02:39:37;;;;;;;31.70;16.67;;;;;;;2.33;73.62;99508.03;5073525;28;20040;-55
2023/01/19 02:42:07;;;;;;;29.88;15.75;;;;;;;2.36;73.21;99539.56;5072938;28;20381;-59
2023/01/19 02:44:35;;;;;;;30.15;14.50;;;;;;;2.24;73.52;99524.38;5073060;28;20111;-56
2023/01/19 02:47:01;;;;;;;27.30;15.50;;;;;;;2.20;73.96;99523.66;5073591;28;20108;-56
2023/01/19 02:49:28;;;;;;;26.33;14.90;;;;;;;2.19;73.94;99511.38;5073192;28;20028;-57
2023/01/19 02:51:54;;;;;;;27.65;14.95;;;;;;;2.20;74.53;99528.09;5072885;28;20040;-54
2023/01/19 02:54:41;;;;;;;23.80;15.05;;;;;;;2.21;74.17;99527.19;5073154;28;20035;-56
2023/01/19 02:57:38;;;;;;;29.20;14.73;;;;;;;2.26;73.90;99510.13;5072899;28;20380;-57
2023/01/19 03:00:03;;;;;;;;;;;;;;;2.46;72.87;99517.97;5045124;28;20064;-58
2023/01/19 03:02:48;;;;;;;;;;;;;;;2.50;72.30;99511.59;5073366;28;20005;-58
2023/01/19 03:05:45;;;;;;;24.83;12.20;;;;;;;2.44;73.21;99557.69;5073730;28;19913;-54
2023/01/19 03:08:31;;;;;;;26.35;13.48;;;;;;;2.39;72.96;99517.44;5072799;28;20437;-56
2023/01/19 03:11:06;;;;;;;24.35;13.68;;;;;;;2.28;73.54;99526.75;5072245;28;20036;-57
2023/01/19 03:13:51;;;;;;;20.55;10.77;;;;;;;2.25;73.47;99505.78;5072721;28;20425;-54
2023/01/19 03:16:34;;;;;;;26.40;12.20;;;;;;;2.58;72.48;99523.47;5073313;28;20103;-57
2023/01/19 03:19:14;;;;;;;23.35;13.05;;;;;;;2.21;72.81;99490.19;5071067;28;20102;-54
2023/01/19 03:21:44;;;;;;;26.63;14.43;;;;;;;2.25;73.55;99526.91;5072337;28;20135;-58
2023/01/19 03:24:12;;;;;;;21.80;13.38;;;;;;;2.20;73.98;99522.81;5072917;28;20032;-57
2023/01/19 03:26:42;;;;;;;27.38;14.02;;;;;;;2.13;74.45;99531.03;5072724;28;20067;-58
2023/01/19 03:29:11;;;;;;;27.30;13.95;;;;;;;2.10;74.25;99541.75;5072295;28;20246;-56
2023/01/19 03:31:40;;;;;;;28.38;13.75;;;;;;;2.17;74.05;99544.09;5072053;28;21242;-60
2023/01/19 03:34:09;;;;;;;25.13;13.38;;;;;;;2.17;73.99;99581.94;5072735;28;20119;-58
2023/01/19 03:36:48;;;;;;;24.95;12.98;;;;;;;2.15;74.20;99573.22;5072211;28;20049;-55
2023/01/19 03:39:20;;;;;;;24.38;13.15;;;;;;;2.11;74.52;99567.22;5072047;28;20032;-56
2023/01/19 03:41:51;;;;;;;23.63;12.23;;;;;;;2.24;73.75;99553.44;5071893;28;20044;-58
2023/01/19 03:44:16;;;;;;;22.17;11.75;;;;;;;2.29;73.15;99575.19;5072685;28;20487;-54
2023/01/19 03:46:44;;;;;;;24.27;12.15;;;;;;;2.23;73.78;99551.72;5072502;28;20080;-48
2023/01/19 03:49:11;;;;;;;22.73;11.93;;;;;;;2.11;73.89;99561.94;5071363;28;20368;-53
2023/01/19 03:51:37;;;;;;;23.23;12.07;;;;;;;2.08;73.42;99545.44;5072268;28;20427;-51
2023/01/19 03:54:04;;;;;;;20.80;12.80;;;;;;;2.13;73.76;99562.72;5072352;28;20763;-54
2023/01/19 03:56:30;;;;;;;22.48;12.63;;;;;;;2.20;73.69;99575.66;5072068;28;20032;-53
2023/01/19 03:58:55;;;;;;;23.23;12.82;;;;;;;2.18;74.02;99561.66;5071846;28;20047;-53
2023/01/19 04:01:21;;;;;;;20.90;11.13;;;;;;;2.23;73.94;99586.91;5072146;28;20093;-57
2023/01/19 04:03:48;;;;;;;20.75;11.32;;;;;;;2.19;73.70;99574.78;5072134;28;20059;-53
2023/01/19 04:06:13;;;;;;;21.75;12.43;;;;;;;2.18;74.04;99593.38;5072046;28;20029;-54
2023/01/19 04:08:39;;;;;;;23.38;12.68;;;;;;;2.27;73.93;99604.31;5071578;28;20041;-51
2023/01/19 04:11:05;;;;;;;18.90;12.02;;;;;;;2.18;73.77;99602.13;5071815;28;20037;-53
2023/01/19 04:13:30;;;;;;;21.67;12.20;;;;;;;2.14;74.28;99596.13;5072047;28;20437;-51
2023/01/19 04:16:00;;;;;;;21.35;12.55;;;;;;;2.23;74.55;99607.19;5071827;28;20059;-55
2023/01/19 04:18:30;;;;;;;22.75;11.95;;;;;;;2.26;74.56;99639.56;5072007;28;20111;-53
2023/01/19 04:20:59;;;;;;;21.15;11.90;;;;;;;2.28;73.94;99621.03;5071974;28;20040;-49
2023/01/19 04:23:25;;;;;;;22.02;12.18;;;;;;;2.34;73.48;99599.56;5071534;28;20044;-53
2023/01/19 04:25:56;;;;;;;23.50;12.07;;;;;;;2.34;74.27;99604.03;5071789;28;20467;-50
2023/01/19 04:28:22;;;;;;;23.20;13.10;;;;;;;2.43;73.36;99587.69;5072147;28;20040;-60
2023/01/19 04:30:50;;;;;;;23.05;13.15;;;;;;;2.32;73.96;99596.16;5071771;28;20104;-54
2023/01/19 04:33:17;;;;;;;23.05;12.23;;;;;;;2.42;73.65;99634.41;5072012;28;20044;-50
2023/01/19 04:35:44;;;;;;;19.60;11.65;;;;;;;2.25;73.64;99600.03;5071813;28;20045;-55
2023/01/19 04:38:10;;;;;;;22.77;12.18;;;;;;;2.34;73.59;99610.13;5071563;28;20468;-52
2023/01/19 04:40:35;;;;;;;21.52;13.60;;;;;;;2.43;73.51;99612.34;5071381;28;20063;-53
2023/01/19 04:43:01;;;;;;;21.15;12.48;;;;;;;2.46;73.62;99619.25;5071969;28;20119;-52
2023/01/19 04:45:26;;;;;;;22.30;13.10;;;;;;;2.36;74.46;99605.63;5071620;28;20437;-54
2023/01/19 04:47:52;;;;;;;19.80;12.25;;;;;;;2.44;74.07;99603.47;5071952;28;20097;-54
2023/01/19 04:50:17;;;;;;;22.73;12.27;;;;;;;2.50;74.31;99609.38;5072561;28;20036;-61
2023/01/19 04:52:43;;;;;;;23.42;14.05;;;;;;;2.52;74.27;99632.13;5075803;28;20031;-54
2023/01/19 04:55:09;;;;;;;24.45;13.20;;;;;;;2.57;74.02;99614.28;5075332;28;20093;-62
2023/01/19 04:57:34;;;;;;;21.77;12.98;;;;;;;2.64;73.64;99632.47;5075052;28;20381;-54
2023/01/19 05:00:00;;;;;;;21.48;13.00;;;;;;;2.56;73.80;99615.22;5075653;28;20495;-55
2023/01/19 05:02:26;;;;;;;24.08;13.77;;;;;;;2.53;74.16;99640.94;5074447;28;20030;-54
2023/01/19 05:04:52;;;;;;;21.55;13.30;;;;;;;2.60;74.15;99630.91;5074940;28;20186;-56
2023/01/19 05:07:17;;;;;;;22.52;13.40;;;;;;;2.61;73.89;99628.19;5074218;28;20171;-54
2023/01/19 05:09:43;;;;;;;22.95;13.00;;;;;;;2.44;74.00;99616.69;5075470;28;20108;-64
2023/01/19 05:12:08;;;;;;;22.50;13.43;;;;;;;2.46;73.83;99619.25;5074953;28;20028;-57
2023/01/19 05:14:34;;;;;;;24.88;12.90;;;;;;;2.67;74.24;99625.25;5075018;28;20118;-54
2023/01/19 05:17:01;;;;;;;26.60;14.57;;;;;;;2.67;73.73;99625.25;5074898;28;20429;-59
2023/01/19 05:19:27;;;;;;;25.38;14.07;;;;;;;2.72;73.95;99628.50;5075436;28;20029;-52
2023/01/19 05:21:53;;;;;;;25.92;14.73;;;;;;;2.72;74.04;99640.84;5075567;28;20025;-51
2023/01/19 05:24:19;;;;;;;24.75;14.02;;;;;;;2.71;74.26;99645.28;5074885;28;20135;-55
2023/01/19 05:26:44;;;;;;;25.88;13.70;;;;;;;2.72;74.87;99673.44;5074282;28;20068;-56
2023/01/19 05:29:09;;;;;;;22.38;13.00;;;;;;;2.76;74.51;99646.84;5075201;28;20039;-57
2023/01/19 05:31:36;;;;;;;23.45;13.88;;;;;;;2.63;74.33;99628.94;5075196;28;20428;-54
2023/01/19 05:34:02;;;;;;;24.00;14.27;;;;;;;2.79;74.63;99658.13;5074578;28;20179;-57
2023/01/19 05:36:28;;;;;;;24.48;13.50;;;;;;;2.77;73.96;99653.84;5074223;28;20056;-53
2023/01/19 05:38:53;;;;;;;23.65;13.52;;;;;;;2.80;74.53;99680.13;5075095;28;20468;-56
2023/01/19 05:41:19;;;;;;;23.90;14.38;;;;;;;2.91;73.69;99661.06;5074455;28;20025;-56
2023/01/19 05:43:44;;;;;;;25.73;13.65;;;;;;;2.83;74.34;99664.09;5074371;28;20322;-57
2023/01/19 05:46:10;;;;;;;25.90;14.10;;;;;;;2.82;74.70;99662.38;5074404;28;20054;-55
2023/01/19 05:48:36;;;;;;;25.08;13.52;;;;;;;2.79;74.28;99663.41;5074886;28;20453;-60
2023/01/19 05:51:04;;;;;;;26.38;13.73;;;;;;;2.87;74.08;99692.97;5074535;28;20031;-56
2023/01/19 05:53:29;;;;;;;23.63;13.50;;;;;;;2.88;75.20;99685.88;5074489;28;20033;-56
2023/01/19 05:56:02;;;;;;;25.83;13.85;;;;;;;3.00;74.10;99674.66;5073348;28;20475;-58
2023/01/19 05:58:28;;;;;;;23.02;14.07;;;;;;;2.98;74.18;99737.38;5054067;28;20037;-57
2023/01/19 06:00:54;;;;;;;20.38;12.95;;;;;;;2.94;74.23;99698.78;5054133;28;20127;-56
2023/01/19 06:03:19;;;;;;;25.70;13.00;;;;;;;2.96;74.92;99714.56;5053117;28;20029;-53
2023/01/19 06:05:45;;;;;;;22.98;12.82;;;;;;;3.06;73.98;99701.72;5053745;28;20033;-57
2023/01/19 06:08:10;;;;;;;25.83;14.52;;;;;;;3.09;73.72;99691.84;5057060;28;20065;-56
2023/01/19 06:10:35;;;;;;;23.45;13.73;;;;;;;3.10;74.91;99692.69;5074157;28;20038;-54
2023/01/19 06:13:01;;;;;;;20.83;12.93;;;;;;;3.11;74.14;99702.34;5073924;28;20032;-56
2023/01/19 06:15:26;;;;;;;26.08;14.40;;;;;;;3.03;74.53;99688.66;5074288;28;20032;-55
2023/01/19 06:17:52;;;;;;;23.73;13.57;;;;;;;3.13;75.00;99703.13;5074061;28;20108;-53
2023/01/19 06:20:17;;;;;;;22.90;14.00;;;;;;;3.12;74.21;99702.28;5071443;28;20032;-54
2023/01/19 06:22:43;;;;;;;25.65;13.80;;;;;;;3.19;74.85;99731.94;5073475;28;20043;-54
2023/01/19 06:25:09;;;;;;;25.27;13.07;;;;;;;3.21;74.56;99745.94;5073474;28;20036;-55
2023/01/19 06:27:35;;;;;;;23.95;14.32;;;;;;;3.22;74.43;99763.50;5073516;28;20039;-58
2023/01/19 06:30:01;;;;;;;25.27;14.18;;;;;;;3.26;74.71;99757.13;5074010;28;20097;-57
2023/01/19 06:32:27;;;;;;;23.83;13.77;;;;;;;3.05;74.33;99723.81;5073386;28;20079;-52
2023/01/19 06:34:52;;;;;;;25.80;13.40;;;;;;;3.32;74.47;99739.22;5073099;28;20410;-55
2023/01/19 06:37:18;;;;;;;21.58;13.10;;;;;;;3.34;74.38;99747.94;5073212;28;20033;-57
2023/01/19 06:39:44;;;;;;;23.45;13.60;;;;;;;3.49;73.87;99751.56;5072619;28;20063;-50
2023/01/19 06:42:10;;;;;;;24.23;14.02;;;;;;;3.42;74.47;99724.59;5073378;28;20067;-54
2023/01/19 06:44:35;;;;;;;28.58;13.52;;;;;;;3.34;74.59;99709.09;5072921;28;20085;-52
2023/01/19 06:47:00;;;;;;;26.67;13.95;;;;;;;3.43;74.39;99716.53;5073629;28;20038;-49
2023/01/19 06:49:26;;;;;;;26.45;15.27;;;;;;;3.41;74.61;99713.13;5073401;28;20054;-50
2023/01/19 06:51:51;;;;;;;24.90;13.52;;;;;;;3.43;74.43;99716.53;5073034;28;20410;-52
2023/01/19 06:54:17;;;;;;;27.40;14.85;;;;;;;3.54;73.79;99733.66;5073361;28;20040;-52
2023/01/19 06:56:42;;;;;;;28.67;15.00;;;;;;;3.52;74.83;99727.59;5073432;28;20028;-51
2023/01/19 06:59:08;;;;;;;28.00;15.18;;;;;;;3.50;74.78;99735.59;5072565;28;20033;-51
2023/01/19 07:01:34;;;;;;;26.55;14.07;;;;;;;3.53;74.32;99738.09;5072622;28;20107;-53
2023/01/19 07:03:59;;;;;;;27.42;14.25;;;;;;;3.39;74.45;99725.59;5073412;28;20170;-50
2023/01/19 07:06:25;;;;;;;28.48;14.10;;;;;;;3.55;74.41;99759.19;5073542;28;20115;-53
2023/01/19 07:08:50;;;;;;;25.02;14.52;;;;;;;3.54;74.41;99737.16;5072943;28;20033;-50
2023/01/19 07:11:16;;;;;;;24.52;14.65;;;;;;;3.58;74.34;99759.03;5065188;28;20025;-62
2023/01/19 07:13:43;;;;;;;27.30;14.95;;;;;;;3.55;74.50;99725.63;5066222;28;20032;-60
2023/01/19 07:16:12;;;;;;;27.48;15.80;;;;;;;3.63;74.62;99745.56;5072254;28;20029;-57
2023/01/19 07:18:38;;;;;;;25.50;14.93;;;;;;;3.59;74.95;99736.91;5071833;28;20463;-56
2023/01/19 07:21:05;;;;;;;30.40;14.93;;;;;;;3.59;74.71;99739.56;5071930;28;20039;-56
2023/01/19 07:23:31;;;;;;;31.98;15.60;;;;;;;3.64;74.23;99740.16;5071999;28;20025;-66
2023/01/19 07:25:59;;;;;;;30.77;14.40;;;;;;;3.68;74.58;99768.19;5071736;28;20040;-55
2023/01/19 07:28:25;;;;;;;29.20;14.95;;;;;;;3.68;74.46;99743.53;5072283;28;20036;-56
2023/01/19 07:30:52;;;;;;;30.00;15.32;;;;;;;3.71;73.96;99769.84;5071914;28;20119;-62
2023/01/19 07:33:17;;;;;;;26.90;15.25;;;;;;;3.70;74.50;99749.59;5071841;28;20033;-56
2023/01/19 07:35:47;;;;;;;30.55;15.35;;;;;;;3.80;74.04;99761.38;5072589;28;20493;-56
2023/01/19 07:38:13;;;;;;;30.35;15.30;;;;;;;3.71;74.03;99780.44;5071526;28;20494;-59
2023/01/19 07:40:39;;;;;;;26.10;15.13;;;;;;;3.71;74.48;99781.25;5071868;28;20036;-60
2023/01/19 07:43:04;;;;;;;29.33;15.30;;;;;;;3.78;74.26;99789.75;5071045;28;20042;-61
2023/01/19 07:45:30;;;;;;;30.13;15.23;;;;;;;3.75;74.59;99789.91;5071560;28;20028;-57
2023/01/19 07:47:55;;;;;;;28.60;15.23;;;;;;;3.78;73.85;99808.28;5072062;28;20024;-58
2023/01/19 07:50:24;;;;;;;31.27;14.98;;;;;;;3.74;74.06;99812.03;5071415;28;20256;-59
2023/01/19 07:52:52;;;;;;;27.00;14.95;;;;;;;3.76;74.02;99794.28;5071652;28;20119;-57
2023/01/19 07:55:19;;;;;;;27.58;15.32;;;;;;;3.80;73.97;99803.75;5071385;28;20020;-61
2023/01/19 07:57:48;;;;;;;26.77;14.65;;;;;;;3.72;74.38;99800.66;5070230;28;20490;-59
2023/01/19 08:00:13;;;;;;;31.05;15.52;;;;;;;3.93;73.62;99789.88;5071264;28;20392;-59
2023/01/19 08:02:40;;;;;;;30.63;15.88;;;;;;;3.85;74.01;99811.47;5071513;28;20081;-59
2023/01/19 08:05:05;;;;;;;27.90;15.55;;;;;;;3.83;74.36;99818.66;5070809;28;20443;-53
2023/01/19 08:07:32;;;;;;;26.70;15.00;;;;;;;3.88;73.99;99836.00;5071501;28;20064;-54
2023/01/19 08:09:57;;;;;;;27.70;15.40;;;;;;;3.69;73.58;99774.34;5071481;28;20449;-52
2023/01/19 08:12:23;;;;;;;29.80;15.38;;;;;;;3.94;74.17;99826.03;5070795;28;20098;-57
2023/01/19 08:14:48;;;;;;;28.58;15.30;;;;;;;3.96;73.74;99829.44;5054070;28;20040;-56
2023/01/19 08:17:14;;;;;;;31.70;16.48;;;;;;;4.00;73.63;99815.09;5070808;28;20503;-55
2023/01/19 08:19:41;;;;;;;28.55;15.05;;;;;;;4.02;74.14;99842.34;5070985;28;20441;-61
2023/01/19 08:22:06;;;;;;;24.23;14.07;;;;;;;4.05;73.34;99850.13;5071595;28;20119;-61
2023/01/19 08:24:32;;;;;;;25.83;15.18;;;;;;;3.95;73.70;99835.69;5070739;28;20116;-67
2023/01/19 08:26:59;;;;;;;29.45;15.18;;;;;;;4.05;73.36;99866.03;5074499;28;20067;-56
2023/01/19 08:29:25;;;;;;;30.52;15.15;;;;;;;4.08;73.63;99855.28;5074073;28;20033;-59
2023/01/19 08:31:51;;;;;;;27.95;15.38;;;;;;;4.07;73.67;99863.31;5075525;28;20036;-56
2023/01/19 08:34:17;;;;;;;25.40;15.15;;;;;;;4.08;73.45;99857.91;5075913;28;20032;-55
2023/01/19 08:36:42;;;;;;;27.45;14.75;;;;;;;4.13;73.93;99861.22;5075400;28;20124;-59
2023/01/19 08:39:11;;;;;;;27.27;15.07;;;;;;;3.98;73.87;99832.88;5075369;28;20040;-55
2023/01/19 08:41:36;;;;;;;26.45;13.77;;;;;;;4.31;72.59;99856.69;5074639;28;20035;-59
2023/01/19 08:44:02;;;;;;;26.90;14.80;;;;;;;4.25;72.97;99856.16;5075895;28;20036;-59
2023/01/19 08:46:28;;;;;;;28.10;15.55;;;;;;;4.29;73.17;99860.38;5074528;28;20039;-56
2023/01/19 08:48:53;;;;;;;26.88;14.23;;;;;;;4.12;73.05;99830.34;5074181;28;20032;-61
2023/01/19 08:51:19;;;;;;;26.00;15.02;;;;;;;4.32;72.63;99870.78;5075618;28;20036;-60
2023/01/19 08:53:45;;;;;;;26.10;14.88;;;;;;;4.33;72.81;99869.00;5074568;28;20043;-67
2023/01/19 08:56:12;;;;;;;24.92;14.13;;;;;;;4.37;72.28;99854.66;5073536;28;20032;-59
2023/01/19 08:58:42;;;;;;;28.92;15.18;;;;;;;4.35;72.66;99857.41;5074467;28;20025;-52
2023/01/19 09:01:09;;;;;;;26.40;13.82;;;;;;;4.36;72.95;99853.81;5075350;28;20021;-54
2023/01/19 09:03:35;;;;;;;25.48;15.45;;;;;;;4.29;72.74;99841.81;5074912;28;20044;-54
2023/01/19 09:06:04;;;;;;;29.55;15.02;;;;;;;4.26;72.79;99848.16;5075033;28;20041;-59
2023/01/19 09:08:29;;;;;;;27.33;15.82;;;;;;;4.27;73.02;99843.69;5075040;28;20044;-49
2023/01/19 09:10:55;;;;;;;31.05;16.13;;;;;;;4.26;72.98;99836.69;5075065;28;20033;-55
2023/01/19 09:13:20;;;;;;;27.15;15.75;;;;;;;4.04;72.75;99799.91;5074290;28;20112;-56
2023/01/19 09:15:46;;;;;;;29.83;15.45;;;;;;;4.16;72.88;99818.63;5074669;28;20111;-51
2023/01/19 09:18:14;;;;;;;24.02;15.43;;;;;;;4.30;72.95;99844.38;5074807;28;20033;-56
2023/01/19 09:20:41;;;;;;;30.10;16.77;;;;;;;4.31;72.72;99856.69;5075128;28;20464;-52
2023/01/19 09:23:12;;;;;;;27.85;15.95;;;;;;;4.32;72.65;99841.63;5074727;28;20077;-55
2023/01/19 09:25:39;;;;;;;29.67;16.27;;;;;;;4.28;72.86;99824.19;5073644;28;20046;-53
2023/01/19 09:28:08;;;;;;;32.35;17.58;;;;;;;4.28;73.24;99834.78;5073588;28;20028;-53
2023/01/19 09:30:36;;;;;;;34.08;19.42;;;;;;;4.29;72.84;99825.91;5074302;28;20406;-52
2023/01/19 09:33:19;;;;;;;30.25;17.63;;;;;;;4.41;73.00;99838.50;5072740;28;20039;-57
2023/01/19 09:35:47;;;;;;;31.50;18.27;;;;;;;4.30;72.43;99817.00;5073865;28;20469;-68
2023/01/19 09:38:14;;;;;;;35.47;17.08;;;;;;;4.34;72.86;99815.06;5074050;28;20032;-56
2023/01/19 09:40:47;;;;;;;28.63;17.35;;;;;;;4.40;72.26;99818.25;5074541;28;20445;-53
2023/01/19 09:43:20;;;;;;;29.92;16.58;;;;;;;4.31;73.22;99818.72;5074025;28;20035;-51
2023/01/19 09:46:00;;;;;;;32.60;17.13;;;;;;;4.33;73.13;99808.88;5073732;28;20051;-54
2023/01/19 09:48:31;;;;;;;31.35;16.85;;;;;;;4.34;72.44;99829.19;5072851;28;20059;-56
2023/01/19 09:51:01;;;;;;;31.25;16.55;;;;;;;4.36;72.44;99827.31;5073930;28;20028;-55
2023/01/19 09:53:45;;;;;;;32.05;16.98;;;;;;;4.42;72.17;99842.00;5074330;28;20037;-52
2023/01/19 09:56:16;;;;;;;29.63;16.58;;;;;;;4.41;72.41;99862.38;5073699;28;20032;-56
2023/01/19 09:58:42;;;;;;;33.53;16.48;;;;;;;4.33;72.30;99859.25;5073089;28;20094;-52
2023/01/19 10:01:29;;;;;;;33.25;17.33;;;;;;;4.35;72.65;99836.19;5073918;28;20032;-52
2023/01/19 10:04:29;;;;;;;31.83;16.95;;;;;;;4.38;73.02;99835.16;5073737;28;20109;-54
2023/01/19 10:07:31;;;;;;;30.23;15.77;;;;;;;4.47;72.43;99849.69;5071726;28;20083;-56
2023/01/19 10:10:29;;;;;;;37.35;17.30;;;;;;;4.48;71.97;99832.84;5073390;28;20094;-55
2023/01/19 10:13:19;;;;;;;31.95;17.73;;;;;;;4.39;72.37;99831.56;5074045;28;20036;-54
2023/01/19 10:16:08;;;;;;;31.13;16.10;;;;;;;4.49;72.19;99837.22;5073596;28;20043;-53
2023/01/19 10:18:46;;;;;;;33.65;18.00;;;;;;;4.25;71.93;99835.84;5073572;28;20433;-52
2023/01/19 10:21:26;;;;;;;33.45;18.90;;;;;;;4.23;72.25;99844.81;5072456;28;20118;-54
2023/01/19 10:23:51;;;;;;;36.92;18.00;;;;;;;4.18;72.51;99841.53;5072494;28;20048;-55
2023/01/19 10:26:21;;;;;;;35.78;18.05;;;;;;;4.22;72.24;99851.03;5072252;28;20032;-58
2023/01/19 10:28:49;;;;;;;38.50;19.13;;;;;;;4.16;72.72;99842.50;5072167;28;20119;-57
2023/01/19 10:31:18;;;;;;;36.08;18.42;;;;;;;3.96;72.21;99802.94;5072374;28;20104;-55
2023/01/19 10:33:44;;;;;;;40.55;19.08;;;;;;;4.09;73.10;99827.00;5072267;28;20055;-54
2023/01/19 10:36:20;;;;;;;35.80;19.55;;;;;;;4.16;72.74;99829.25;5072365;28;20453;-52
2023/01/19 10:38:46;;;;;;;35.92;18.80;;;;;;;4.16;72.53;99826.59;5073903;28;20048;-53
2023/01/19 10:41:17;;;;;;;39.45;19.40;;;;;;;4.13;73.05;99847.97;5069967;28;20038;-56
2023/01/19 10:43:45;;;;;;;37.15;18.98;;;;;;;4.18;71.81;99854.81;5060584;28;20028;-55
2023/01/19 10:46:19;;;;;;;39.65;18.60;;;;;;;4.21;71.92;99860.78;5073493;28;20497;-55
2023/01/19 10:48:48;;;;;;;44.17;20.20;;;;;;;4.09;72.69;99854.34;5072608;28;20043;-56
2023/01/19 10:51:14;;;;;;;32.90;18.05;;;;;;;4.03;72.65;99852.00;5073062;28;20020;-51
2023/01/19 10:53:52;;;;;;;40.80;20.35;;;;;;;3.99;72.53;99845.16;5072931;28;20047;-50
2023/01/19 10:56:23;;;;;;;41.63;20.35;;;;;;;4.04;73.12;99851.06;5073267;28;20361;-55
2023/01/19 10:58:49;;;;;;;40.05;18.23;;;;;;;4.06;72.41;99861.59;5071986;28;20035;-52
2023/01/19 11:01:24;;;;;;;45.00;21.17;;;;;;;4.02;73.56;99874.16;5072685;28;20032;-55
2023/01/19 11:03:52;;;;;;;45.55;21.55;;;;;;;4.04;73.09;99848.44;5072063;28;20060;-52
2023/01/19 11:06:27;;;;;;;42.38;20.45;;;;;;;4.14;72.20;99854.97;5071690;28;20123;-53
2023/01/19 11:09:11;;;;;;;44.83;20.40;;;;;;;4.10;73.34;99856.06;5072542;28;20070;-54
2023/01/19 11:11:42;;;;;;;36.42;19.63;;;;;;;4.01;72.64;99848.59;5072494;28;20028;-66
2023/01/19 11:14:13;;;;;;;41.00;19.27;;;;;;;4.08;72.39;99865.03;5071869;28;20056;-62
2023/01/19 11:16:39;;;;;;;44.85;21.55;;;;;;;4.01;73.19;99860.06;5072881;28;20032;-58
2023/01/19 11:19:17;;;;;;;37.10;19.88;;;;;;;4.11;72.31;99873.69;5071845;28;20043;-54
2023/01/19 11:21:43;;;;;;;42.97;20.63;;;;;;;4.02;72.64;99863.56;5071918;28;20060;-55
2023/01/19 11:24:13;;;;;;;42.90;21.10;;;;;;;4.03;72.30;99867.91;5072686;28;20070;-58
2023/01/19 11:26:43;;;;;;;42.10;20.92;;;;;;;3.97;72.58;99862.94;5072720;28;20024;-55
2023/01/19 11:29:24;;;;;;;42.95;22.00;;;;;;;3.99;72.86;99871.66;5071189;28;20444;-54
2023/01/19 11:31:51;;;;;;;44.97;20.65;;;;;;;3.96;72.10;99869.19;5071984;28;20060;-49
2023/01/19 11:34:31;;;;;;;45.40;20.90;;;;;;;3.90;72.73;99888.06;5071847;28;20037;-51
2023/01/19 11:37:17;;;;;;;46.20;21.25;;;;;;;3.83;73.44;99891.00;5072165;28;20055;-54
2023/01/19 11:39:46;;;;;;;46.55;20.25;;;;;;;3.78;73.55;99894.84;5073303;28;20128;-55
2023/01/19 11:42:13;;;;;;;43.30;20.73;;;;;;;3.73;73.14;99895.91;5071511;28;20029;-54